Kezdőlap
METAR-TAF:

METAR-TAF

Repülőterek :

Ponca City, Oklahoma, Amerikai Egyesült Államok

földrajzi szélesség: 36-43-50N, földrajzi hosszúság: 097-05-59W, magasság: 307 m

METAR: hiányzik

Idő: 22:09 (03:09 UTC)

Előrejelzés

A jelentés 3 órával és 49 perccel ezelõtt készült, 23:20 UTC
Az előrejelzés 22-én 00 óra UTC és 22-én 24 óra UTC között érvényes
Déli szél 12 kt
Látótávolság: 10 km
Szórványos felhőzet 5000 lábon
Szórványos felhőzet 25000 lábon
22-én 0200 órától UTC szerint
Dél-délkeleti szél 8 kt
Látótávolság: 10 km
Szórványos felhőzet 15000 lábon
Szakadozott felhőzet 25000 lábon
22-én 1400 órától UTC szerint
Dél-délnyugati szél 12 kt széllökések: 17 kt
Látótávolság: 10 km
Szórványos felhőzet 6000 lábon
Szórványos felhőzet 25000 lábon

TAF: KPNC 212320Z 2200/2224 18012KT P6SM SCT050 SCT250 FM220200 16008KT P6SM SCT150 BKN250 FM221400 20012G17KT P6SM SCT060 SCT250 AMD NOT SKED

Meteorológiai megfigyelések és előrejelzések több, mint 4000 repülőtéren (METAR és TAF jelentéseket).

A térképen piros és sárga pontok jelzik az elérhető meteorológiai állomásokat.

Mozgassa az egeret a pont fölött, hogy megjelenjen az állomás neve.

Azután kattintson az időjárási megfigyelések és előrejelzések megtekintéséhez.

A térkép megváltoztatása: kattintson a fekete keresztel jelölt zöld gombra ráközelítéshez, a vonallal jelölt zöld gombra távolításhoz, vagy a zöld nyilakra a szomszédos térképek eléréséhez.


METAR-TAF: